This is the latest recevied weather packets stored in our database for station/object Krozingen. If no packets are shown the sender has not sent any weather packets the latest 1 day(s).
| Time | Temp. | Humidity | Pressure | Rain* | Wind** | Luminosity | Snow |
|---|---|---|---|---|---|---|---|
| 1836273905 | 15.56° C | 87% | 1020.7 hPa | 0 mm | 0.45 m/s, 105° | - | - |
| 1778013129 | 13.33° C | 86% | 1009.5 hPa | 3.3 mm | 2.24 m/s, 143° | - | - |
| 1778011330 | 13.33° C | 88% | 1009.2 hPa | 3.3 mm | 0.45 m/s, 127° | - | - |
| 1778009529 | 13.89° C | 86% | 1009 hPa | 3.3 mm | 0.89 m/s, 139° | - | - |
| 1778007735 | 14.44° C | 83% | 1008.8 hPa | 3.3 mm | 1.34 m/s, 207° | - | - |
| 1778005932 | 15° C | 85% | 1008.3 hPa | 3.3 mm | 1.34 m/s, 143° | - | - |
| 1778004131 | 16.11° C | 81% | 1008.4 hPa | 3.3 mm | 4.02 m/s, 191° | - | - |
| 1778002330 | 17.78° C | 73% | 1008.2 hPa | 3.3 mm | 1.79 m/s, 127° | - | - |
| 1778000530 | 18.89° C | 69% | 1008.1 hPa | 3.3 mm | 3.58 m/s, 226° | - | - |
| 1777998731 | 17.78° C | 74% | 1008.2 hPa | 3.3 mm | 3.58 m/s, 123° | - | - |
| 1777995130 | 15.56° C | 90% | 1008.2 hPa | 3.3 mm | 2.24 m/s, 271° | - | - |
| 1777993336 | 14.44° C | 90% | 1008.2 hPa | 3.3 mm | 1.79 m/s, 217° | - | - |
| 1777991532 | 17.22° C | 79% | 1008.3 hPa | 1.52 mm | 4.47 m/s, 250° | - | - |
| 1777989730 | 18.89° C | 69% | 1007.7 hPa | 0 mm | 1.34 m/s, 216° | - | - |
| 1777987930 | 18.33° C | 72% | 1008 hPa | 0 mm | 0.89 m/s, 129° | - | - |
| 1777986130 | 17.78° C | 73% | 1008.3 hPa | 0 mm | 2.24 m/s, 30° | - | - |
| 1777984330 | 17.22° C | 76% | 1008.5 hPa | 0 mm | 0.89 m/s, 13° | - | - |
| 1777982530 | 16.11° C | 80% | 1008.9 hPa | 0 mm | 1.79 m/s, 252° | - | - |
| 1777980730 | 16.11° C | 80% | 1009.2 hPa | 0 mm | 1.34 m/s, 266° | - | - |
| 1777978931 | 16.11° C | 80% | 1009.2 hPa | 0 mm | 1.79 m/s, 229° | - | - |
| 1777977131 | 15.56° C | 83% | 1009.4 hPa | 0 mm | 0.89 m/s, 248° | - | - |
| 1777975332 | 15.56° C | 84% | 1009.3 hPa | 0 mm | 0.45 m/s, 331° | - | - |
| 1777973532 | 15.56° C | 83% | 1009.1 hPa | 0 mm | 0.45 m/s, 349° | - | - |
| 1777971732 | 15° C | 87% | 1009.5 hPa | 0 mm | 0.89 m/s, 34° | - | - |
| 1777969931 | 15.56° C | 86% | 1009.8 hPa | 0 mm | 0.45 m/s, 51° | - | - |
* Rain since midnight (hover to see other rain measurements)
** Current wind speed in m/s (hover to see current wind gust speed)